Tiempo atmosférico en la estación meteorológica de Frontera, Sabinosa, Santa Cruz de Tenerife (20 m.)



Fecha
DESCASC
Temp. máxima en grados centígrados (hora)
DESCASC
Temp. mínima en grados centígrados (hora)
DESCASC
Temp. media en grados centígrados
DESCASC
Racha de viento máxima en m/sg (hora)
DESCASC
Velocidad máxima media en intervalos de 10 minutos(hora)
DESCASC
Precipitaciones diarias en mm
DESCASC
Precipitaciones de 00:00 a 06:00 en mm
DESCASC
Precipitaciones de 06:00 a 12:00 en mm
DESCASC
Precipitaciones de 12:00 a 18:00 en mm
DESCASC
Precipitaciones de 18:00 a 24:00 en mm
DESCASC
15-08-2019 26.2 (13:50) 20.7 (05:20) 23.5 11.11 (11:30) 6.11 (11:50) 0 0 0 0 0
14-08-2019 24.8 (15:10) 20.8 (00:00) 22.8 10.28 (17:40) 5.56 (17:40) 0 0 0 0 0
13-08-2019 26.7 (14:00) 21.6 (00:00) 24.2 13.89 (14:20) 7.5 (11:30) 0 0 0 0 0
12-08-2019 27.6 (15:10) 22.4 (00:00) 25 15 (17:20) 6.67 (17:20) 0 0 0 0 0
11-08-2019 29.1 (14:50) 23.2 (00:00) 26.2 10.28 (10:30) 5.83 (18:40) 0 0 0 0 0
10-08-2019 28.6 (16:00) 22.4 (00:00) 25.5 8.89 (12:20) 5.83 (10:40) 0 0 0 0 0
09-08-2019 27 (13:50) 21.5 (00:00) 24.3 7.5 (11:50) 5 (11:50) 0 0 0 0 0
08-08-2019 27.5 (16:20) 21.7 (00:00) 24.6 7.22 (00:40) 3.89 (01:40) 0 0 0 0 0
07-08-2019 27.6 (12:10) 22.4 (00:00) 25 8.61 (02:00) 4.72 (01:50) 0 0 0 0 0
06-08-2019 28.2 (13:20) 21.3 (00:00) 24.8 8.06 (23:10) 4.44 (23:20) 0 0 0 0 0
05-08-2019 28.7 (12:50) 22.1 (00:00) 25.4 8.33 (01:50) 5 (02:10) 0 0 0 0 0
04-08-2019 28.2 (16:50) 21.7 (00:00) 25 11.39 (03:00) 5 (00:30) 0 0 0 0 0
03-08-2019 27.4 (15:30) 21.4 (00:00) 24.4 8.61 (16:20) 5.28 (04:30) 0 0 0 0 0
02-08-2019 27.5 (17:10) 21.6 (00:00) 24.6 10.28 (13:20) 6.39 (13:20) 0 0 0 0 0
01-08-2019 27.2 (14:20) 21.1 (00:00) 24.2 11.39 (00:10) 6.39 (00:10) 0 0 0 0 0
31-07-2019 26.9 (17:00) 20.4 (00:00) 23.6 12.22 (23:59) 6.39 (06:50) 0 0 0 0 0
30-07-2019 27.3 (16:00) 22.1 (00:00) 24.7 9.17 (14:10) 5.28 (07:10) 0 0 0 0 0
29-07-2019 26.9 (16:20) 21.3 (00:00) 24.1 10.83 (14:00) 6.39 (12:20) 0 0 0 0 0
28-07-2019 27.7 (13:50) 21.1 (00:00) 24.4 10 (23:59) 5.83 (23:59) 0 0 0 0 0
27-07-2019 25.2 (18:20) 21.7 (00:00) 23.5 12.22 (02:20) 6.67 (12:20) 0 0 0 0 0
26-07-2019 26.6 (11:30) 22.2 (00:00) 24.4 12.5 (15:00) 7.22 (23:20) 0 0 0 0 0
25-07-2019 27.1 (15:40) 19.5 (00:00) 23.3 8.89 (18:50) 5 (18:50) 0 0 0 0 0
24-07-2019 26.9 (16:00) 20.6 (00:00) 23.8 9.44 (16:40) 5.83 (11:10) 0 0 0 0 0
23-07-2019 25.6 (15:10) 20.4 (00:00) 23 12.78 (21:10) 6.94 (21:10) 0 0 0 0 0
22-07-2019 26.7 (14:20) 21.4 (00:00) 24.1 11.94 (23:59) 6.39 (23:20) 0 0 0 0 0
21-07-2019 25.1 (15:50) 22.1 (02:30) 23.6 12.22 (19:20) 6.11 (12:00) 0 0 0 0 0
20-07-2019 27.5 (18:50) 21.9 (01:40) 24.7 10 (23:59) 5.83 (00:20) 0 0 0 0 0
19-07-2019 26.9 (14:10) 21.6 (02:10) 24.3 10 (07:30) 6.39 (00:20) 0 0 0 0 0

Gráficas

Temp. máximas Temp. mínimas Temp. medias Precipitaciones Rachas de viento máximas Velocidades máximas media en intervalos de 10 minutos

Datos horarios

Fecha y hora oficial Temperatura (ºC) Velocidad del viento (km/h) Dirección del viento Racha (km/h) Dirección de racha Precipitación (mm) Presión (hPa) Tendencia (hPa) Humedad (%)
2019-08-17 23:00:00 24.2 8 Oeste 21 Sudoeste 0 -- -- 78
2019-08-17 22:00:00 24.3 10 Sur 14 Sur 0 -- -- 79
2019-08-17 21:00:00 24.6 4 Sudeste 22 Nordeste 0 -- -- 78
2019-08-17 20:00:00 25.3 5 Este 21 Este 0 -- -- 76
2019-08-17 19:00:00 26.2 12 Este 21 Este 0 -- -- 72
2019-08-17 18:00:00 27.3 12 Este 23 Nordeste 0 -- -- 70
2019-08-17 17:00:00 26.9 15 Nordeste 29 Nordeste 0 -- -- 71
2019-08-17 16:00:00 27.4 16 Nordeste 30 Este 0 -- -- 70
2019-08-17 15:00:00 27.1 16 Nordeste 34 Nordeste 0 -- -- 71
2019-08-17 14:00:00 27.1 16 Nordeste 31 Nordeste 0 -- -- 70
2019-08-17 13:00:00 27.1 18 Este 31 Este 0 -- -- 71
2019-08-17 12:00:00 26.4 12 Este 27 Nordeste 0 -- -- 74
2019-08-17 11:00:00 24.5 11 Este 31 Nordeste 0 -- -- 80
2019-08-17 10:00:00 24.4 6 Noroeste 15 Noroeste 0 -- -- 79
2019-08-17 09:00:00 23.6 8 Norte 19 Noroeste 0 -- -- 82
2019-08-17 08:00:00 23.1 9 Noroeste 22 Norte 0 -- -- 84
2019-08-17 07:00:00 23.2 14 Noroeste 25 Norte 0 -- -- 83
2019-08-17 06:00:00 23.1 10 Norte 29 Oeste 0 -- -- 83
2019-08-17 05:00:00 23.1 12 Oeste 33 Oeste 0 -- -- 82
2019-08-17 04:00:00 23.2 6 Oeste 25 Sudoeste 0 -- -- 81
2019-08-17 03:00:00 23.3 7 Oeste 20 Oeste 0 -- -- 81
2019-08-17 02:00:00 23.5 8 Sudoeste 18 Oeste 0 -- -- 81
2019-08-17 01:00:00 23.6 6 Sudoeste 17 Este 0 -- -- 80
2019-08-17 00:00:00 23.7 10 Nordeste 28 Este 0 -- -- 81
2019-08-16 23:00:00 23.8 14 Nordeste 35 Este 0 -- -- 80
2019-08-16 22:00:00 24 15 Este 35 Nordeste 0 -- -- 80
2019-08-16 21:00:00 24.2 11 Este 28 Nordeste 0 -- -- 79
2019-08-16 20:00:00 24.6 9 Este 28 Este 0 -- -- 78
2019-08-16 19:00:00 25.1 10 Este 24 Sudeste 0 -- -- 76
2019-08-16 18:00:00 25.4 10 Este 26 Sudeste 0 -- -- 75
2019-08-16 17:00:00 25.6 12 Este 26 Nordeste 0 -- -- 74
2019-08-16 16:00:00 25.7 12 Este 29 Nordeste 0 -- -- 73
2019-08-16 15:00:00 26.1 13 Este 34 Este 0 -- -- 71
2019-08-16 14:00:00 25.8 15 Este 30 Nordeste 0 -- -- 72
2019-08-16 13:00:00 25.1 18 Nordeste 33 Nordeste 0 -- -- 74
2019-08-16 12:00:00 25.9 15 Nordeste 32 Nordeste 0 -- -- 69
2019-08-16 11:00:00 24.6 14 Nordeste 32 Nordeste 0 -- -- 76
2019-08-16 10:00:00 24.8 10 Nordeste 23 Nordeste 0 -- -- 72
2019-08-16 09:00:00 23.2 9 Nordeste 19 Sudoeste 0 -- -- 76
2019-08-16 08:00:00 22.9 6 Nordeste 19 Sudeste 0 -- -- 76
2019-08-16 07:00:00 22.8 4 Noroeste 12 Noroeste 0 -- -- 76
2019-08-16 06:00:00 22.9 7 Norte 18 Este 0 -- -- 77
2019-08-16 05:00:00 23 10 Este 21 Este 0 -- -- 77
2019-08-16 04:00:00 23.1 11 Nordeste 22 Este 0 -- -- 79
2019-08-16 03:00:00 23 6 Sudoeste 20 Nordeste 0 -- -- 78
2019-08-16 02:00:00 23.1 10 Nordeste 27 Nordeste 0 -- -- 77
2019-08-16 01:00:00 23.1 14 Este 31 Este 0 -- -- 76
2019-08-16 00:00:00 23.1 11 Este 33 Este 0 -- -- 77
2019-08-15 23:00:00 22.6 9 Sudeste 23 Este 0 -- -- 77
2019-08-15 22:00:00 22.8 6 Sudeste 27 Nordeste 0 -- -- 75
2019-08-15 21:00:00 23.3 12 Este 35 Este 0 -- -- 75
2019-08-15 20:00:00 23.7 15 Este 34 Este 0 -- -- 74
2019-08-15 19:00:00 24.3 15 Este 32 Este 0 -- -- 73
2019-08-15 18:00:00 24.5 15 Este 26 Nordeste 0 -- -- 72
2019-08-15 17:00:00 24.7 13 Este 37 Este 0 -- -- 72
2019-08-15 16:00:00 24.8 13 Nordeste 36 Este 0 -- -- 73
2019-08-15 15:00:00 25.1 15 Nordeste 40 Este 0 -- -- 69
2019-08-15 14:00:00 26.1 15 Este 30 Nordeste 0 -- -- 66
2019-08-15 13:00:00 24.6 17 Nordeste 31 Nordeste 0 -- -- 70
2019-08-15 12:00:00 24 19 Nordeste 40 Nordeste 0 -- -- 73
2019-08-15 11:00:00 24.7 16 Este 31 Nordeste 0 -- -- 69
2019-08-15 10:00:00 24.8 9 Nordeste 19 Sudeste 0 -- -- 66
2019-08-15 09:00:00 23.2 12 Sudeste 23 Sudeste 0 -- -- 67
2019-08-15 08:00:00 21 13 Sudeste 22 Sur 0 -- -- 75
2019-08-15 07:00:00 21.2 9 Sur 29 Sudeste 0 -- -- 73
2019-08-15 06:00:00 20.9 11 Sur 23 Sur 0 -- -- 74
2019-08-15 05:00:00 20.9 12 Sur 20 Sudeste 0 -- -- 73
2019-08-15 04:00:00 21.3 13 Sudeste 26 Sudeste 0 -- -- 74
2019-08-15 03:00:00 21.3 10 Sur 17 Sudeste 0 -- -- 74
2019-08-15 02:00:00 21.5 12 Sur 19 Sur 0 -- -- 75
2019-08-15 01:00:00 21.6 11 Sudeste 24 Sudeste 0 -- -- 74
2019-08-15 00:00:00 22.1 6 Sudeste 26 Nordeste 0 -- -- 74
2019-08-14 23:00:00 22.8 13 Este 31 Nordeste 0 -- -- 78
2019-08-14 22:00:00 22.8 13 Este 29 Nordeste 0 -- -- 75
2019-08-14 21:00:00 23.1 12 Este 26 Este 0 -- -- 75
2019-08-14 20:00:00 23.6 13 Este 21 Nordeste 0 -- -- 74
2019-08-14 19:00:00 23.9 10 Este 27 Este 0 -- -- 73
2019-08-14 18:00:00 23.8 18 Nordeste 37 Nordeste 0 -- -- 74
2019-08-14 17:00:00 24.2 19 Nordeste 31 Nordeste 0 -- -- 70
2019-08-14 16:00:00 24.5 14 Nordeste 29 Este 0 -- -- 71
2019-08-14 15:00:00 24.7 10 Este 28 Nordeste 0 -- -- 68
2019-08-14 14:00:00 23.8 15 Nordeste 26 Nordeste 0 -- -- 72
2019-08-14 13:00:00 24 14 Este 31 Este 0 -- -- 71
2019-08-14 12:00:00 24.4 12 Este 26 Este 0 -- -- 68
2019-08-14 11:00:00 23.4 15 Este 22 Nordeste 0 -- -- 72
2019-08-14 10:00:00 24 13 Este 21 Este 0 -- -- 70
2019-08-14 09:00:00 23.8 14 Sudeste 22 Sudeste 0 -- -- 64
2019-08-14 08:00:00 21.5 8 Sudeste 24 Sudeste 0 -- -- 71
2019-08-14 07:00:00 21.1 13 Sudeste 21 Sudeste 0 -- -- 71
2019-08-14 06:00:00 20.9 11 Sudeste 22 Sudeste 0 -- -- 69
2019-08-14 05:00:00 21.2 13 Sudeste 22 Sur 0 -- -- 68
2019-08-14 04:00:00 21.5 10 Sudeste 27 Sudeste 0 -- -- 69
2019-08-14 03:00:00 21.5 15 Sudeste 22 Sudeste 0 -- -- 70
2019-08-14 02:00:00 21.3 9 Sudeste 24 Sudeste 0 -- -- 70
2019-08-14 01:00:00 22.3 8 Este 32 Nordeste 0 -- -- 74
2019-08-14 00:00:00 22.4 13 Este 33 Este 0 -- -- 72
2019-08-13 23:00:00 22.4 11 Este 33 Nordeste 0 -- -- 72
2019-08-13 22:00:00 22.8 16 Nordeste 33 Este 0 -- -- 74
2019-08-13 21:00:00 23 14 Este 37 Nordeste 0 -- -- 72
2019-08-13 20:00:00 23.8 16 Este 29 Este 0 -- -- 73
2019-08-13 19:00:00 24.9 15 Este 32 Este 0 -- -- 68
2019-08-13 18:00:00 25.2 19 Nordeste 39 Nordeste 0 -- -- 68
2019-08-13 17:00:00 25.9 16 Este 32 Este 0 -- -- 64
2019-08-13 16:00:00 26.1 14 Este 41 Nordeste 0 -- -- 65
2019-08-13 15:00:00 26 21 Nordeste 50 Nordeste 0 -- -- 64
2019-08-13 14:00:00 26.7 19 Este 39 Nordeste 0 -- -- 63
2019-08-13 13:00:00 25.8 18 Nordeste 36 Nordeste 0 -- -- 67
2019-08-13 12:00:00 25.5 19 Nordeste 46 Este 0 -- -- 65
2019-08-13 11:00:00 25 24 Nordeste 48 Nordeste 0 -- -- 67
2019-08-13 10:00:00 24.4 19 Nordeste 38 Nordeste 0 -- -- 71
2019-08-13 09:00:00 23.9 13 Este 30 Este 0 -- -- 71
2019-08-13 08:00:00 22 8 Este 27 Este 0 -- -- 76
2019-08-13 07:00:00 21.7 9 Sudeste 21 Sudeste 0 -- -- 75
2019-08-13 06:00:00 22.2 10 Este 34 Nordeste 0 -- -- 77
2019-08-13 05:00:00 22.3 14 Este 32 Nordeste 0 -- -- 76
2019-08-13 04:00:00 22.2 14 Este 36 Este 0 -- -- 78
2019-08-13 03:00:00 22.1 14 Sudeste 34 Sudeste 0 -- -- 75
2019-08-13 02:00:00 22.5 11 Este 37 Este 0 -- -- 75
2019-08-13 01:00:00 22.5 10 Este 31 Este 0 -- -- 74
2019-08-13 00:00:00 22.5 8 Sudeste 30 Nordeste 0 -- -- 75
2019-08-12 23:00:00 22.8 12 Este 30 Este 0 -- -- 77
2019-08-12 22:00:00 23 18 Este 37 Este 0 -- -- 76
2019-08-12 21:00:00 23.2 17 Este 40 Nordeste 0 -- -- 73
2019-08-12 20:00:00 23.8 17 Este 35 Este 0 -- -- 75
2019-08-12 19:00:00 24.3 20 Nordeste 42 Nordeste 0 -- -- 72
2019-08-12 18:00:00 24.8 18 Nordeste 54 Nordeste 0 -- -- 73
2019-08-12 17:00:00 26.2 17 Este 39 Nordeste 0 -- -- 67
2019-08-12 16:00:00 26.7 19 Este 32 Nordeste 0 -- -- 63
2019-08-12 15:00:00 27.5 17 Este 35 Nordeste 0 -- -- 63
2019-08-12 14:00:00 26.8 19 Nordeste 46 Nordeste 0 -- -- 64
2019-08-12 13:00:00 26.4 17 Nordeste 38 Nordeste 0 -- -- 67
2019-08-12 12:00:00 26.2 18 Nordeste 36 Nordeste 0 -- -- 65
2019-08-12 11:00:00 25.3 21 Nordeste 38 Este 0 -- -- 68
2019-08-12 10:00:00 25.2 15 Este 34 Nordeste 0 -- -- 71
2019-08-12 09:00:00 24.5 15 Este 23 Nordeste 0 -- -- 71
2019-08-12 08:00:00 23.1 14 Este 29 Nordeste 0 -- -- 76
2019-08-12 07:00:00 23.2 17 Nordeste 31 Este 0 -- -- 76
2019-08-12 06:00:00 22.6 10 Sudeste 28 Este 0 -- -- 73
2019-08-12 05:00:00 22.6 7 Este 33 Este 0 -- -- 75
2019-08-12 04:00:00 23 17 Nordeste 38 Nordeste 0 -- -- 76
2019-08-12 03:00:00 22.9 14 Este 35 Nordeste 0 -- -- 74
2019-08-12 02:00:00 22.9 13 Este 39 Este 0 -- -- 71
2019-08-12 01:00:00 23 12 Este 33 Nordeste 0 -- -- 75
2019-08-12 00:00:00 23.3 18 Este 32 Nordeste 0 -- -- 76
2019-08-11 23:00:00 23.2 11 Este 26 Nordeste 0 -- -- 73
2019-08-11 22:00:00 23.5 13 Este 28 Este 0 -- -- 72
2019-08-11 21:00:00 24.2 15 Este 27 Este 0 -- -- 71
2019-08-11 20:00:00 25.6 15 Este 30 Sudeste 0 -- -- 68
2019-08-11 19:00:00 26 17 Sudeste 33 Este 0 -- -- 71
2019-08-11 18:00:00 26.8 14 Este 22 Sudeste 0 -- -- 68
2019-08-11 17:00:00 27.5 15 Este 27 Este 0 -- -- 65
2019-08-11 16:00:00 28.1 12 Este 22 Este 0 -- -- 65
2019-08-11 15:00:00 29 13 Este 26 Nordeste 0 -- -- 64
2019-08-11 14:00:00 28.7 14 Este 32 Este 0 -- -- 62
2019-08-11 13:00:00 27.8 12 Este 32 Nordeste 0 -- -- 67
2019-08-11 12:00:00 28 15 Nordeste 37 Nordeste 0 -- -- 60
2019-08-11 11:00:00 27.5 13 Nordeste 37 Este 0 -- -- 65
2019-08-11 10:00:00 26.3 15 Este 33 Sudeste 0 -- -- 66
2019-08-11 09:00:00 25.2 14 Este 24 Este 0 -- -- 72
2019-08-11 08:00:00 24.7 8 Este 30 Sudeste 0 -- -- 75
2019-08-11 07:00:00 24.6 15 Sudeste 36 Nordeste 0 -- -- 71
2019-08-11 06:00:00 24.3 16 Sudeste 29 Este 0 -- -- 74
2019-08-11 05:00:00 24 17 Este 32 Nordeste 0 -- -- 76
2019-08-11 04:00:00 23.9 17 Este 36 Nordeste 0 -- -- 77
2019-08-11 03:00:00 23.9 17 Este 30 Este 0 -- -- 78
2019-08-11 02:00:00 24.2 9 Este 27 Este 0 -- -- 78
2019-08-11 01:00:00 24.5 13 Sudeste 25 Sudeste 0 -- -- 76
2019-08-11 00:00:00 24.5 12 Este 19 Este 0 -- -- 76
2019-08-10 23:00:00 24.7 9 Sudeste 28 Sudeste 0 -- -- 75
2019-08-10 22:00:00 24.8 8 Sudeste 21 Este 0 -- -- 74
2019-08-10 21:00:00 25.3 8 Este 22 Sudeste 0 -- -- 73
2019-08-10 20:00:00 25.8 8 Este 24 Este 0 -- -- 74
2019-08-10 19:00:00 26.6 14 Este 26 Nordeste 0 -- -- 69
2019-08-10 18:00:00 26.9 11 Este 26 Sudeste 0 -- -- 69
2019-08-10 17:00:00 27.8 10 Este 23 Este 0 -- -- 66
2019-08-10 16:00:00 28.6 12 Este 24 Este 0 -- -- 63
2019-08-10 15:00:00 27.8 10 Este 24 Este 0 -- -- 65
2019-08-10 14:00:00 28.3 9 Nordeste 25 Este 0 -- -- 64
2019-08-10 13:00:00 27.8 12 Este 32 Este 0 -- -- 66
2019-08-10 12:00:00 26.7 14 Nordeste 30 Nordeste 0 -- -- 71
2019-08-10 11:00:00 25.9 18 Nordeste 31 Nordeste 0 -- -- 73
2019-08-10 10:00:00 25.9 9 Nordeste 27 Sudoeste 0 -- -- 73
2019-08-10 09:00:00 24.8 8 Sur 19 Sudoeste 0 -- -- 75
2019-08-10 08:00:00 23.4 10 Sudoeste 25 Oeste 0 -- -- 79
2019-08-10 07:00:00 23.3 9 Sudoeste 22 Sur 0 -- -- 76
2019-08-10 06:00:00 23.2 8 Sudoeste 20 Sur 0 -- -- 77
2019-08-10 05:00:00 23.1 5 Noroeste 18 Sur 0 -- -- 76
2019-08-10 04:00:00 22.6 6 Este 15 Este 0 -- -- 79
2019-08-10 03:00:00 23 6 Sudeste 14 Nordeste 0 -- -- 79
2019-08-10 02:00:00 22.9 6 Este 15 Sudeste 0 -- -- 76
2019-08-10 01:00:00 23.2 3 Sudeste 14 Sur 0 -- -- 81
2019-08-10 00:00:00 23.2 8 Sur 12 Sur 0 -- -- 81
2019-08-09 23:00:00 23.3 5 Sudeste 10 Este 0 -- -- 81
2019-08-09 22:00:00 23.7 8 Este 14 Este 0 -- -- 79
2019-08-09 21:00:00 24.1 10 Este 20 Este 0 -- -- 78
2019-08-09 20:00:00 24.5 10 Este 21 Nordeste 0 -- -- 78
2019-08-09 19:00:00 24.8 11 Nordeste 18 Nordeste 0 -- -- 77
2019-08-09 18:00:00 25.2 10 Nordeste 22 Nordeste 0 -- -- 75
2019-08-09 17:00:00 25.4 14 Nordeste 23 Nordeste 0 -- -- 75
2019-08-09 16:00:00 25.8 12 Nordeste 20 Nordeste 0 -- -- 72
2019-08-09 15:00:00 26.4 14 Nordeste 20 Norte 0 -- -- 73
2019-08-09 14:00:00 26.8 8 Nordeste 16 Nordeste 0 -- -- 69
2019-08-09 13:00:00 26.6 9 Nordeste 21 Nordeste 0 -- -- 69
2019-08-09 12:00:00 25.6 17 Nordeste 27 Nordeste 0 -- -- 72
2019-08-09 11:00:00 25.4 14 Nordeste 24 Nordeste 0 -- -- 72
2019-08-09 10:00:00 24.9 7 Nordeste 14 Nordeste 0 -- -- 75
2019-08-09 09:00:00 23.8 4 Sudeste 10 Sudeste 0 -- -- 78
2019-08-09 08:00:00 21.5 5 Sudeste 11 Oeste 0 -- -- 79
2019-08-09 07:00:00 22.3 4 Sudeste 12 Sudeste 0 -- -- 81
2019-08-09 06:00:00 22.5 4 Sudeste 9 Nordeste 0 -- -- 80
2019-08-09 05:00:00 23.1 5 Nordeste 16 Nordeste 0 -- -- 81
2019-08-09 04:00:00 23.1 5 Este 13 Este 0 -- -- 79
2019-08-09 03:00:00 23 7 Este 12 Nordeste 0 -- -- 80
2019-08-09 02:00:00 22.8 6 Sur 12 Sur 0 -- -- 78
2019-08-09 01:00:00 23.1 6 Sudeste 13 Este 0 -- -- 77
2019-08-09 00:00:00 23.7 10 Este 18 Este 0 -- -- 77
2019-08-08 23:00:00 23.9 9 Nordeste 17 Nordeste 0 -- -- 78
2019-08-08 22:00:00 23.9 10 Nordeste 17 Nordeste 0 -- -- 77
2019-08-08 21:00:00 24.3 8 Este 14 Nordeste 0 -- -- 75
2019-08-08 20:00:00 24.8 9 Este 14 Nordeste 0 -- -- 73
2019-08-08 19:00:00 25.1 11 Nordeste 20 Nordeste 0 -- -- 72
2019-08-08 18:00:00 25.4 10 Nordeste 20 Nordeste 0 -- -- 72
2019-08-08 17:00:00 26.7 12 Nordeste 18 Nordeste 0 -- -- 69
2019-08-08 16:00:00 27.2 9 Nordeste 13 Nordeste 0 -- -- 65
2019-08-08 15:00:00 26.2 5 Norte 15 Nordeste 0 -- -- 68
2019-08-08 14:00:00 26.6 10 Nordeste 17 Nordeste 0 -- -- 68
2019-08-08 13:00:00 26.8 11 Nordeste 18 Nordeste 0 -- -- 67
2019-08-08 12:00:00 26.6 12 Nordeste 19 Nordeste 0 -- -- 66
2019-08-08 11:00:00 26.1 3 Nordeste 8 Norte 0 -- -- 65
2019-08-08 10:00:00 25.2 3 Norte 12 Norte 0 -- -- 65
2019-08-08 09:00:00 23.8 8 Este 16 Este 0 -- -- 70
2019-08-08 08:00:00 21.9 5 Sur 16 Sudeste 0 -- -- 75
2019-08-08 07:00:00 22.1 11 Sur 23 Sudeste 0 -- -- 75
2019-08-08 06:00:00 21.9 11 Sur 18 Sur 0 -- -- 75
2019-08-08 05:00:00 21.7 8 Sur 14 Sur 0 -- -- 77
2019-08-08 04:00:00 22.4 4 Este 10 Sudeste 0 -- -- 78
2019-08-08 03:00:00 22.5 3 Este 22 Nordeste 0 -- -- 78
2019-08-08 02:00:00 22.9 11 Nordeste 26 Nordeste 0 -- -- 80
2019-08-08 01:00:00 23 11 Nordeste 26 Nordeste 0 -- -- 78
2019-08-08 00:00:00 23.2 14 Nordeste 25 Nordeste 0 -- -- 79
2019-08-07 23:00:00 23.4 13 Nordeste 27 Este 0 -- -- 77
2019-08-07 22:00:00 23.7 10 Este 16 Este 0 -- -- 76
2019-08-07 21:00:00 24 10 Este 17 Este 0 -- -- 76
2019-08-07 20:00:00 24.6 10 Este 18 Nordeste 0 -- -- 74
2019-08-07 19:00:00 25.3 10 Nordeste 18 Nordeste 0 -- -- 72
2019-08-07 18:00:00 27.3 7 Este 27 Nordeste 0 -- -- 65
2019-08-07 17:00:00 27.4 9 Este 28 Nordeste 0 -- -- 61
2019-08-07 16:00:00 27.4 7 Este 14 Este 0 -- -- 62
2019-08-07 15:00:00 27 8 Nordeste 20 Nordeste 0 -- -- 65
2019-08-07 14:00:00 27.2 12 Este 21 Este 0 -- -- 63
2019-08-07 13:00:00 27.3 12 Este 24 Este 0 -- -- 65
2019-08-07 12:00:00 26.7 14 Este 23 Sudeste 0 -- -- 67
2019-08-07 11:00:00 25.1 10 Sudeste 18 Sudeste 0 -- -- 73
2019-08-07 10:00:00 25 9 Este 19 Sudeste 0 -- -- 74
2019-08-07 09:00:00 24.7 8 Este 23 Nordeste 0 -- -- 77
2019-08-07 08:00:00 22.9 7 Este 19 Este 0 -- -- 77
2019-08-07 07:00:00 22.7 8 Sudeste 21 Sudeste 0 -- -- 72
2019-08-07 06:00:00 23 10 Este 26 Nordeste 0 -- -- 75
2019-08-07 05:00:00 23.3 9 Sudeste 17 Este 0 -- -- 78
2019-08-07 04:00:00 23.3 9 Este 22 Nordeste 0 -- -- 78
2019-08-07 03:00:00 23.4 12 Este 31 Sudeste 0 -- -- 74
2019-08-07 02:00:00 22.6 15 Sudeste 31 Sudeste 0 -- -- 65
2019-08-07 01:00:00 22.6 16 Sudeste 25 Sudeste 0 -- -- 67
2019-08-07 00:00:00 23 11 Este 29 Este 0 -- -- 73
2019-08-06 23:00:00 23.6 13 Este 26 Nordeste 0 -- -- 78
2019-08-06 22:00:00 23.6 13 Sudeste 20 Este 0 -- -- 73
2019-08-06 21:00:00 24.4 10 Este 22 Este 0 -- -- 74
2019-08-06 20:00:00 25.6 11 Este 23 Sudeste 0 -- -- 69
2019-08-06 19:00:00 27.4 13 Este 21 Este 0 -- -- 61
2019-08-06 18:00:00 27.9 13 Este 21 Este 0 -- -- 59
2019-08-06 17:00:00 27.6 11 Este 21 Este 0 -- -- 59
2019-08-06 16:00:00 27.8 12 Este 20 Este 0 -- -- 60
2019-08-06 15:00:00 27.3 11 Nordeste 18 Este 0 -- -- 65
2019-08-06 14:00:00 27.5 11 Este 22 Este 0 -- -- 63
2019-08-06 13:00:00 27.7 9 Este 23 Este 0 -- -- 60
2019-08-06 12:00:00 26.8 9 Este 17 Este 0 -- -- 64
2019-08-06 11:00:00 26.5 11 Este 18 Nordeste 0 -- -- 65
2019-08-06 10:00:00 25.9 10 Este 21 Sudeste 0 -- -- 67
2019-08-06 09:00:00 24.3 9 Este 21 Sudeste 0 -- -- 68
2019-08-06 08:00:00 21.3 10 Sur 16 Sudeste 0 -- -- 75
2019-08-06 07:00:00 21.6 12 Sur 17 Sudeste 0 -- -- 75
2019-08-06 06:00:00 21.6 9 Sur 21 Sudeste 0 -- -- 72
2019-08-06 05:00:00 21.9 8 Sudeste 19 Sudeste 0 -- -- 75
2019-08-06 04:00:00 21.9 11 Este 21 Sudeste 0 -- -- 76
2019-08-06 03:00:00 22 12 Sudeste 20 Sudeste 0 -- -- 74
2019-08-06 02:00:00 21.7 10 Sudeste 15 Sudeste 0 -- -- 70
2019-08-06 01:00:00 21.7 4 Sudeste 17 Sudeste 0 -- -- 69
2019-08-06 00:00:00 22.6 12 Sudeste 18 Sudeste 0 -- -- 76
2019-08-05 23:00:00 22.4 7 Sudeste 16 Este 0 -- -- 72
2019-08-05 22:00:00 22.8 8 Sudeste 15 Nordeste 0 -- -- 73
2019-08-05 21:00:00 23.6 9 Este 23 Nordeste 0 -- -- 75
2019-08-05 20:00:00 24 17 Este 28 Nordeste 0 -- -- 76
2019-08-05 19:00:00 25.2 15 Este 27 Nordeste 0 -- -- 71
2019-08-05 18:00:00 27.1 13 Este 23 Sudeste 0 -- -- 63
2019-08-05 17:00:00 27.2 9 Este 17 Este 0 -- -- 63
2019-08-05 16:00:00 28.1 13 Este 24 Este 0 -- -- 62
2019-08-05 15:00:00 28.2 14 Este 22 Este 0 -- -- 62
2019-08-05 14:00:00 28.4 14 Este 22 Nordeste 0 -- -- 61
2019-08-05 13:00:00 28.6 14 Este 22 Este 0 -- -- 61
2019-08-05 12:00:00 27.3 14 Este 29 Este 0 -- -- 63
2019-08-05 11:00:00 26.8 17 Este 30 Este 0 -- -- 66
2019-08-05 10:00:00 24.4 14 Este 22 Este 0 -- -- 71
2019-08-05 09:00:00 23.7 15 Este 30 Sudeste 0 -- -- 71
2019-08-05 08:00:00 22.7 12 Sudeste 29 Sudeste 0 -- -- 72
2019-08-05 07:00:00 22.3 14 Sudeste 23 Sudeste 0 -- -- 74
2019-08-05 06:00:00 22.5 9 Sudeste 18 Sudeste 0 -- -- 79
2019-08-05 05:00:00 22.5 8 Sudeste 20 Este 0 -- -- 81
2019-08-05 04:00:00 22.7 12 Este 23 Este 0 -- -- 81
2019-08-05 03:00:00 22.7 10 Este 28 Este 0 -- -- 80
2019-08-05 02:00:00 22.6 15 Nordeste 30 Nordeste 0 -- -- 80
2019-08-05 01:00:00 22.8 14 Este 27 Nordeste 0 -- -- 78
2019-08-05 00:00:00 22.9 13 Este 27 Este 0 -- -- 77
2019-08-04 23:00:00 23.1 8 Este 22 Este 0 -- -- 75
2019-08-04 22:00:00 23.7 15 Este 23 Este 0 -- -- 75
2019-08-04 21:00:00 24.4 12 Este 28 Este 0 -- -- 70
2019-08-04 20:00:00 25.9 13 Este 22 Este 0 -- -- 61
2019-08-04 19:00:00 27.4 13 Este 21 Este 0 -- -- 58
2019-08-04 18:00:00 27.7 13 Este 22 Este 0 -- -- 55
2019-08-04 17:00:00 28.1 10 Este 20 Sudeste 0 -- -- 54
2019-08-04 16:00:00 27.6 12 Este 23 Nordeste 0 -- -- 56
2019-08-04 15:00:00 27.4 14 Nordeste 21 Nordeste 0 -- -- 59
2019-08-04 14:00:00 27.2 13 Nordeste 26 Nordeste 0 -- -- 61
2019-08-04 13:00:00 27.1 14 Nordeste 28 Nordeste 0 -- -- 55
2019-08-04 12:00:00 27.3 11 Este 23 Este 0 -- -- 54
2019-08-04 11:00:00 26.2 15 Este 24 Nordeste 0 -- -- 59
2019-08-04 10:00:00 25 9 Este 28 Sudeste 0 -- -- 67
2019-08-04 09:00:00 22.9 14 Sudeste 24 Sudeste 0 -- -- 72
2019-08-04 08:00:00 22.2 11 Este 19 Este 0 -- -- 74
2019-08-04 07:00:00 21.8 6 Este 19 Este 0 -- -- 67
2019-08-04 06:00:00 22.3 10 Sudeste 26 Este 0 -- -- 69
2019-08-04 05:00:00 22.2 12 Sudeste 27 Este 0 -- -- 69
2019-08-04 04:00:00 22.4 13 Sudeste 35 Sudeste 0 -- -- 68
2019-08-04 03:00:00 22.2 18 Sudeste 41 Sudeste 0 -- -- 67
2019-08-04 02:00:00 22.1 7 Sudeste 31 Este 0 -- -- 70
2019-08-04 01:00:00 22.5 13 Este 34 Nordeste 0 -- -- 73
2019-08-04 00:00:00 22.5 9 Este 22 Este 0 -- -- 73
2019-08-03 23:00:00 22.3 9 Sudeste 24 Este 0 -- -- 72
2019-08-03 22:00:00 22.7 12 Este 25 Este 0 -- -- 73
2019-08-03 21:00:00 23.3 10 Este 25 Este 0 -- -- 68
2019-08-03 20:00:00 24.7 16 Sudeste 28 Sudeste 0 -- -- 62
2019-08-03 19:00:00 25.9 14 Este 23 Nordeste 0 -- -- 64
2019-08-03 18:00:00 27.3 15 Este 25 Este 0 -- -- 55
2019-08-03 17:00:00 26.9 14 Este 31 Nordeste 0 -- -- 62
2019-08-03 16:00:00 26.8 15 Nordeste 24 Este 0 -- -- 60
2019-08-03 15:00:00 26.9 11 Este 21 Este 0 -- -- 61
2019-08-03 14:00:00 26.4 14 Nordeste 26 Nordeste 0 -- -- 63
2019-08-03 13:00:00 26.2 12 Este 28 Nordeste 0 -- -- 57
2019-08-03 12:00:00 24.4 14 Este 27 Este 0 -- -- 69
2019-08-03 11:00:00 25 10 Este 18 Nordeste 0 -- -- 66
2019-08-03 10:00:00 25 10 Este 17 Este 0 -- -- 67
2019-08-03 09:00:00 22.3 8 Sudeste 21 Sudeste 0 -- -- 72
2019-08-03 08:00:00 21.7 10 Este 24 Este 0 -- -- 75
2019-08-03 07:00:00 22 14 Este 25 Nordeste 0 -- -- 80
2019-08-03 06:00:00 21.5 11 Sudeste 19 Sudeste 0 -- -- 75
2019-08-03 05:00:00 22.1 9 Este 27 Este 0 -- -- 73
2019-08-03 04:00:00 22.4 14 Este 23 Este 0 -- -- 76
2019-08-03 03:00:00 22 15 Sudeste 21 Nordeste 0 -- -- 70
2019-08-03 02:00:00 22.2 9 Este 26 Este 0 -- -- 73
2019-08-03 01:00:00 22.3 11 Sudeste 28 Este 0 -- -- 72
2019-08-03 00:00:00 22.7 14 Este 31 Este 0 -- -- 75
2019-08-02 23:00:00 22.8 17 Este 29 Nordeste 0 -- -- 74
2019-08-02 22:00:00 22.9 10 Este 24 Sudeste 0 -- -- 71
2019-08-02 21:00:00 23.5 11 Sudeste 22 Sudeste 0 -- -- 68
2019-08-02 20:00:00 24.1 14 Este 33 Este 0 -- -- 71
2019-08-02 19:00:00 25.1 17 Este 37 Nordeste 0 -- -- 65
2019-08-02 18:00:00 26.2 12 Este 22 Este 0 -- -- 61
2019-08-02 17:00:00 27.3 12 Este 29 Nordeste 0 -- -- 56
2019-08-02 16:00:00 26.5 17 Nordeste 26 Nordeste 0 -- -- 59
2019-08-02 15:00:00 26.1 12 Este 25 Nordeste 0 -- -- 60
2019-08-02 14:00:00 25.6 17 Nordeste 37 Nordeste 0 -- -- 59
2019-08-02 13:00:00 24.8 14 Este 30 Nordeste 0 -- -- 67
2019-08-02 12:00:00 24.7 12 Este 31 Nordeste 0 -- -- 65
2019-08-02 11:00:00 25 12 Nordeste 22 Este 0 -- -- 62
2019-08-02 10:00:00 25.3 10 Este 19 Este 0 -- -- 59
2019-08-02 09:00:00 23.1 6 Este 21 Nordeste 0 -- -- 64
2019-08-02 08:00:00 21.8 8 Sur 26 Nordeste 0 -- -- 68
2019-08-02 07:00:00 21.9 14 Nordeste 27 Este 0 -- -- 73
2019-08-02 06:00:00 22 14 Este 22 Este 0 -- -- 71
2019-08-02 05:00:00 21.7 11 Sudeste 28 Este 0 -- -- 66
2019-08-02 04:00:00 22.2 15 Este 30 Nordeste 0 -- -- 68
2019-08-02 03:00:00 21.9 12 Sudeste 24 Nordeste 0 -- -- 68
2019-08-02 02:00:00 21.9 12 Este 24 Sur 0 -- -- 71
2019-08-02 01:00:00 21.8 10 Sudeste 26 Este 0 -- -- 69
2019-08-02 00:00:00 22.3 16 Este 32 Este 0 -- -- 72
2019-08-01 23:00:00 22.5 15 Este 30 Este 0 -- -- 72
2019-08-01 22:00:00 22.8 12 Este 28 Nordeste 0 -- -- 72
2019-08-01 21:00:00 23.7 10 Este 22 Este 0 -- -- 74
2019-08-01 20:00:00 24.8 14 Este 24 Sudeste 0 -- -- 66
2019-08-01 19:00:00 25.1 11 Este 19 Este 0 -- -- 66
2019-08-01 18:00:00 26.3 13 Este 21 Sudeste 0 -- -- 61
2019-08-01 17:00:00 25.2 14 Nordeste 27 Este 0 -- -- 67
2019-08-01 16:00:00 26.5 10 Este 22 Este 0 -- -- 59
2019-08-01 15:00:00 26.8 13 Este 20 Este 0 -- -- 57
2019-08-01 14:00:00 26.8 11 Este 17 Este 0 -- -- 56
2019-08-01 13:00:00 26.7 13 Este 27 Este 0 -- -- 56
2019-08-01 12:00:00 25.7 13 Nordeste 34 Nordeste 0 -- -- 58
2019-08-01 11:00:00 24.8 22 Nordeste 34 Este 0 -- -- 61
2019-08-01 10:00:00 24.1 11 Nordeste 27 Este 0 -- -- 61
2019-08-01 09:00:00 22.5 11 Este 23 Este 0 -- -- 67
2019-08-01 08:00:00 21.3 12 Sudeste 28 Nordeste 0 -- -- 65
2019-08-01 07:00:00 21.7 16 Este 32 Nordeste 0 -- -- 70
2019-08-01 06:00:00 21.6 9 Sudeste 22 Nordeste 0 -- -- 70
2019-08-01 05:00:00 22.1 10 Este 28 Sudeste 0 -- -- 71
2019-08-01 04:00:00 21.4 18 Sudeste 31 Sudeste 0 -- -- 65
2019-08-01 03:00:00 21.3 10 Sudeste 21 Sudeste 0 -- -- 67
2019-08-01 02:00:00 21.4 11 Sudeste 24 Este 0 -- -- 69
2019-08-01 01:00:00 21.6 14 Sudeste 41 Sudeste 0 -- -- 61
2019-08-01 00:00:00 22 21 Sudeste 44 Sudeste 0 -- -- 60
2019-07-31 23:00:00 22 13 Este 26 Este 0 -- -- 71
2019-07-31 22:00:00 22.3 12 Este 28 Este 0 -- -- 70
2019-07-31 21:00:00 22.9 19 Este 30 Este 0 -- -- 74
2019-07-31 20:00:00 23.9 16 Este 26 Nordeste 0 -- -- 68
2019-07-31 19:00:00 25.3 17 Este 27 Este 0 -- -- 65
2019-07-31 18:00:00 25.4 20 Este 30 Nordeste 0 -- -- 62
2019-07-31 17:00:00 26.9 13 Este 23 Este 0 -- -- 56
2019-07-31 16:00:00 25.8 15 Nordeste 23 Nordeste 0 -- -- 58
2019-07-31 15:00:00 25.7 16 Nordeste 28 Este 0 -- -- 58
2019-07-31 14:00:00 25.5 19 Nordeste 30 Nordeste 0 -- -- 61
2019-07-31 13:00:00 26 13 Este 25 Este 0 -- -- 61
2019-07-31 12:00:00 25 13 Este 31 Este 0 -- -- 52
2019-07-31 11:00:00 24.3 17 Este 37 Este 0 -- -- 60
2019-07-31 10:00:00 24.2 17 Este 34 Sudeste 0 -- -- 62
2019-07-31 09:00:00 22 14 Este 27 Sudeste 0 -- -- 64
2019-07-31 08:00:00 21.5 14 Sudeste 39 Sudeste 0 -- -- 69
2019-07-31 07:00:00 20.9 20 Sudeste 32 Sudeste 0 -- -- 65
2019-07-31 06:00:00 20.7 16 Sudeste 28 Nordeste 0 -- -- 73
2019-07-31 05:00:00 21.4 12 Este 37 Este 0 -- -- 78
2019-07-31 04:00:00 21.6 15 Sudeste 24 Este 0 -- -- 70
2019-07-31 03:00:00 21.8 10 Este 27 Sudeste 0 -- -- 74
2019-07-31 02:00:00 21.8 15 Sudeste 39 Sudeste 0 -- -- 71
2019-07-31 01:00:00 21.3 16 Sudeste 30 Sudeste 0 -- -- 64
2019-07-31 00:00:00 22.1 15 Este 28 Este 0 -- -- 72
2019-07-30 23:00:00 22.7 14 Este 31 Este 0 -- -- 74
2019-07-30 22:00:00 22.7 15 Este 29 Este 0 -- -- 69
2019-07-30 21:00:00 23.1 15 Este 28 Este 0 -- -- 69
2019-07-30 20:00:00 23.7 16 Este 30 Sudeste 0 -- -- 67
2019-07-30 19:00:00 24.4 15 Este 30 Este 0 -- -- 68
2019-07-30 18:00:00 25.1 17 Este 27 Este 0 -- -- 64
2019-07-30 17:00:00 26.5 14 Este 26 Este 0 -- -- 63
2019-07-30 16:00:00 27.3 13 Este 24 Nordeste 0 -- -- 60
2019-07-30 15:00:00 25.9 15 Este 33 Este 0 -- -- 60
2019-07-30 14:00:00 26.2 18 Este 32 Este 0 -- -- 57
2019-07-30 13:00:00 25.4 15 Este 26 Este 0 -- -- 68
2019-07-30 12:00:00 24.6 15 Este 27 Este 0 -- -- 68
2019-07-30 11:00:00 24.2 18 Este 28 Este 0 -- -- 73
2019-07-30 10:00:00 23.4 10 Este 23 Este 0 -- -- 79
2019-07-30 09:00:00 23.3 11 Este 26 Este 0 -- -- 79
2019-07-30 08:00:00 22.9 14 Este 31 Sudeste 0 -- -- 77
2019-07-30 07:00:00 22.3 18 Sudeste 30 Sudeste 0 -- -- 67
2019-07-30 06:00:00 22.7 10 Este 24 Nordeste 0 -- -- 77
2019-07-30 05:00:00 22.6 9 Este 22 Este 0 -- -- 78
2019-07-30 04:00:00 22.4 9 Sudeste 20 Este 0 -- -- 79
2019-07-30 03:00:00 22.8 13 Este 24 Este 0 -- -- 83
2019-07-30 02:00:00 22.7 13 Este 26 Nordeste 0 -- -- 79
2019-07-30 01:00:00 22.8 10 Este 24 Este 0 -- -- 79
2019-07-30 00:00:00 23.1 10 Sudeste 21 Este 0 -- -- 75
2019-07-29 23:00:00 23.2 13 Este 27 Este 0 -- -- 76
2019-07-29 22:00:00 23.2 11 Este 26 Este 0 -- -- 73
2019-07-29 21:00:00 23.7 14 Este 27 Nordeste 0 -- -- 69
2019-07-29 20:00:00 24.9 13 Este 26 Este 0 -- -- 67
2019-07-29 19:00:00 25.5 13 Nordeste 28 Nordeste 0 -- -- 67
2019-07-29 18:00:00 26.1 16 Nordeste 33 Nordeste 0 -- -- 60
2019-07-29 17:00:00 26.7 12 Este 22 Este 0 -- -- 62
2019-07-29 16:00:00 26.4 18 Este 36 Nordeste 0 -- -- 63
2019-07-29 15:00:00 25.5 15 Este 31 Este 0 -- -- 66
2019-07-29 14:00:00 26.4 21 Nordeste 39 Nordeste 0 -- -- 63
2019-07-29 13:00:00 26.5 16 Nordeste 35 Nordeste 0 -- -- 58
2019-07-29 12:00:00 26.6 21 Este 36 Este 0 -- -- 56
2019-07-29 11:00:00 25.2 17 Este 36 Nordeste 0 -- -- 64
2019-07-29 10:00:00 25.6 12 Este 30 Este 0 -- -- 64
2019-07-29 09:00:00 22.5 19 Sudeste 29 Sudeste 0 -- -- 68
2019-07-29 08:00:00 21.7 17 Sudeste 26 Sudeste 0 -- -- 71
2019-07-29 07:00:00 21.6 9 Sudeste 21 Sudeste 0 -- -- 71
2019-07-29 06:00:00 22.4 13 Este 23 Este 0 -- -- 72
2019-07-29 05:00:00 22.3 10 Este 26 Sudeste 0 -- -- 72
2019-07-29 04:00:00 22.2 10 Este 25 Este 0 -- -- 73
2019-07-29 03:00:00 22.3 9 Este 23 Este 0 -- -- 71
2019-07-29 02:00:00 22.5 13 Este 32 Nordeste 0 -- -- 74
2019-07-29 01:00:00 22.8 16 Este 31 Nordeste 0 -- -- 75
2019-07-29 00:00:00 23 21 Este 36 Nordeste 0 -- -- 76
2019-07-28 23:00:00 23.2 11 Este 27 Nordeste 0 -- -- 76
2019-07-28 22:00:00 23.5 13 Sudeste 23 Nordeste 0 -- -- 76
2019-07-28 21:00:00 23.9 14 Nordeste 30 Nordeste 0 -- -- 77
2019-07-28 20:00:00 24.5 19 Nordeste 31 Nordeste 0 -- -- 74
2019-07-28 19:00:00 24.9 13 Este 29 Sudeste 0 -- -- 75
2019-07-28 18:00:00 25.2 13 Este 26 Este 0 -- -- 74
2019-07-28 17:00:00 26.3 12 Este 20 Este 0 -- -- 70
2019-07-28 16:00:00 26.1 13 Este 28 Nordeste 0 -- -- 70
2019-07-28 15:00:00 26.8 12 Este 30 Nordeste 0 -- -- 67
2019-07-28 14:00:00 27 18 Este 27 Nordeste 0 -- -- 69
2019-07-28 13:00:00 26 13 Este 22 Este 0 -- -- 71
2019-07-28 12:00:00 24.6 13 Este 34 Nordeste 0 -- -- 72
2019-07-28 11:00:00 24.7 16 Este 31 Nordeste 0 -- -- 71
2019-07-28 10:00:00 23.4 10 Este 29 Este 0 -- -- 74
2019-07-28 09:00:00 22.8 15 Este 30 Este 0 -- -- 77
2019-07-28 08:00:00 22.3 11 Este 25 Este 0 -- -- 77
2019-07-28 07:00:00 21.8 13 Sudeste 23 Sudeste 0 -- -- 77
2019-07-28 06:00:00 22 8 Sudeste 29 Sudeste 0 -- -- 79
2019-07-28 05:00:00 22 13 Sudeste 34 Sudeste 0 -- -- 75
2019-07-28 04:00:00 21.5 19 Sudeste 32 Sur 0 -- -- 72
2019-07-28 03:00:00 21.1 14 Sudeste 23 Sudeste 0 -- -- 74
2019-07-28 02:00:00 22 10 Este 29 Nordeste 0 -- -- 74
2019-07-28 01:00:00 22.3 19 Nordeste 32 Nordeste 0 -- -- 75
2019-07-28 00:00:00 22.1 17 Nordeste 37 Nordeste 0 -- -- 74
2019-07-27 23:00:00 21.7 11 Sudeste 23 Sudeste 0 -- -- 74
2019-07-27 22:00:00 22.1 12 Sudeste 28 Nordeste 0 -- -- 73
2019-07-26 11:00:00 -- -- -- -- -- -- -- -- --
2019-07-26 10:00:00 -- -- -- -- -- -- -- -- --
2019-07-26 09:00:00 -- -- -- -- -- -- -- -- --
2019-07-26 08:00:00 -- -- -- -- -- -- -- -- --
2019-07-26 07:00:00 22.6 8 Sudeste 22 Sudeste 0 -- -- 77
2019-07-26 06:00:00 22.6 9 Sudeste 30 Este 0 -- -- 77
2019-07-26 05:00:00 22.4 8 Sudeste 23 Sudeste 0 -- -- 77
2019-07-26 04:00:00 22.5 12 Sur 26 Sudeste 0 -- -- 76
2019-07-26 03:00:00 22.6 17 Sudeste 27 Sudeste 0 -- -- 75
2019-07-26 02:00:00 22.6 14 Sudeste 29 Este 0 -- -- 75
2019-07-26 01:00:00 22.6 10 Sudeste 24 Sudeste 0 -- -- 74
2019-07-26 00:00:00 22.6 10 Sudeste 21 Sudeste 0 -- -- 75
2019-07-25 23:00:00 22.8 11 Sudeste 24 Sudeste 0 -- -- 74
2019-07-25 22:00:00 23.1 8 Sudeste 19 Sudeste 0 -- -- 74
2019-07-25 21:00:00 24 9 Este 20 Este 0 -- -- 72
2019-07-25 20:00:00 25.7 10 Este 24 Este 0 -- -- 67
2019-07-25 19:00:00 26.3 12 Este 32 Este 0 -- -- 63
2019-07-25 18:00:00 26.4 14 Este 21 Este 0 -- -- 66
2019-07-25 17:00:00 26.7 14 Este 21 Nordeste 0 -- -- 66
2019-07-25 16:00:00 26.9 12 Nordeste 24 Este 0 -- -- 65
2019-07-25 15:00:00 26.7 15 Este 24 Este 0 -- -- 66
2019-07-25 14:00:00 26.2 14 Este 27 Este 0 -- -- 68
2019-07-25 13:00:00 25.8 16 Nordeste 25 Nordeste 0 -- -- 69
2019-07-25 12:00:00 25.5 13 Nordeste 23 Este 0 -- -- 70
2019-07-25 11:00:00 25.6 13 Este 24 Nordeste 0 -- -- 68
2019-07-25 10:00:00 24.8 10 Este 17 Este 0 -- -- 68
2019-07-25 09:00:00 23.5 8 Este 14 Sudeste 0 -- -- 75
2019-07-25 08:00:00 20 9 Sur 12 Sur 0 -- -- 82
2019-07-25 07:00:00 20.2 8 Sur 16 Sur 0 -- -- 79
2019-07-25 06:00:00 20.1 10 Sudeste 15 Sur 0 -- -- 80
2019-07-25 05:00:00 20.4 9 Sudeste 20 Sudeste 0 -- -- 75
2019-07-25 04:00:00 20.7 11 Sudeste 19 Sudeste 0 -- -- 75
2019-07-25 03:00:00 20.9 9 Sudeste 17 Sudeste 0 -- -- 76
2019-07-25 02:00:00 20.7 9 Sudeste 17 Sudeste 0 -- -- 76
2019-07-25 01:00:00 20.7 8 Sudeste 17 Sudeste 0 -- -- 74
2019-07-25 00:00:00 21.5 10 Sudeste 15 Sudeste 0 -- -- 77
2019-07-24 23:00:00 22 10 Sudeste 22 Sudeste 0 -- -- 75